Terminal Aerodrome Forecast
Issued by NWS Corpus Christi, TX

Home | Current Version | Previous Version | Text Only | Print | Product List | Glossary On
Versions: 1 2 3 4 5 6 7 8 9 10 11 12 13 14
000
FTUS44 KCRP 241122
TAFCRP
TAF
KCRP 241122Z 2412/2512 36006KT P6SM SKC
     FM241500 03020G28KT P6SM SCT060
     FM242300 36014G18KT P6SM SCT100
     FM250200 36012KT P6SM SKC
     FM250400 35006KT P6SM SKC=

USA.gov is the U.S. government's official web portal to all federal, state and local government web resources and services.